sensor_id;sensor_type;location;lat;lon;timestamp;pressure;altitude;pressure_sealevel;temperature;humidity
41632;BME280;37452;51.938;4.624;2022-09-30T00:00:26;77054.56;;;-142.75;100.00
41632;BME280;37452;51.938;4.624;2022-09-30T00:02:51;77040.78;;;-142.75;100.00
41632;BME280;37452;51.938;4.624;2022-09-30T00:05:16;77042.75;;;-142.75;100.00
41632;BME280;37452;51.938;4.624;2022-09-30T00:07:42;77046.69;;;-142.75;100.00
41632;BME280;37452;51.938;4.624;2022-09-30T00:10:07;77042.75;;;-142.75;100.00
41632;BME280;37452;51.938;4.624;2022-09-30T00:12:33;77027.00;;;-142.75;100.00
41632;BME280;37452;51.938;4.624;2022-09-30T00:14:58;77019.13;;;-142.75;100.00
41632;BME280;37452;51.938;4.624;2022-09-30T00:17:23;77021.09;;;-142.75;100.00
41632;BME280;37452;51.938;4.624;2022-09-30T00:19:48;77013.22;;;-142.75;100.00
41632;BME280;37452;51.938;4.624;2022-09-30T00:22:13;77040.78;;;-142.75;100.00
41632;BME280;37452;51.938;4.624;2022-09-30T00:24:39;77046.69;;;-142.75;100.00
41632;BME280;37452;51.938;4.624;2022-09-30T00:27:04;77042.75;;;-142.75;100.00
41632;BME280;37452;51.938;4.624;2022-09-30T00:29:29;77050.63;;;-142.75;100.00
41632;BME280;37452;51.938;4.624;2022-09-30T00:31:54;77062.44;;;-142.75;100.00
41632;BME280;37452;51.938;4.624;2022-09-30T00:34:20;77064.41;;;-142.75;100.00
41632;BME280;37452;51.938;4.624;2022-09-30T00:39:14;77050.63;;;-142.75;100.00
41632;BME280;37452;51.938;4.624;2022-09-30T00:41:40;77028.97;;;-142.75;100.00
41632;BME280;37452;51.938;4.624;2022-09-30T00:46:49;77011.25;;;-142.75;100.00
41632;BME280;37452;51.938;4.624;2022-09-30T00:49:17;77003.38;;;-142.75;100.00
41632;BME280;37452;51.938;4.624;2022-09-30T00:51:45;77005.34;;;-142.75;100.00
41632;BME280;37452;51.938;4.624;2022-09-30T00:54:14;77003.38;;;-142.75;100.00
41632;BME280;37452;51.938;4.624;2022-09-30T00:56:43;77001.41;;;-142.75;100.00
41632;BME280;37452;51.938;4.624;2022-09-30T00:59:21;77009.28;;;-142.75;100.00
41632;BME280;37452;51.938;4.624;2022-09-30T01:01:48;77001.41;;;-142.75;100.00
41632;BME280;37452;51.938;4.624;2022-09-30T01:04:14;77003.38;;;-142.75;100.00
41632;BME280;37452;51.938;4.624;2022-09-30T01:06:40;77017.16;;;-142.75;100.00
41632;BME280;37452;51.938;4.624;2022-09-30T01:09:05;77013.22;;;-142.75;100.00
41632;BME280;37452;51.938;4.624;2022-09-30T01:11:30;77023.06;;;-142.75;100.00
41632;BME280;37452;51.938;4.624;2022-09-30T01:13:58;77023.06;;;-142.75;100.00
41632;BME280;37452;51.938;4.624;2022-09-30T01:24:11;77044.72;;;-142.75;100.00
41632;BME280;37452;51.938;4.624;2022-09-30T01:26:43;77052.59;;;-142.75;100.00
41632;BME280;37452;51.938;4.624;2022-09-30T01:32:21;77046.69;;;-142.75;100.00
41632;BME280;37452;51.938;4.624;2022-09-30T01:37:39;77040.78;;;-142.75;100.00
41632;BME280;37452;51.938;4.624;2022-09-30T01:45:25;77038.81;;;-142.75;100.00
41632;BME280;37452;51.938;4.624;2022-09-30T01:47:57;77030.94;;;-142.75;100.00
41632;BME280;37452;51.938;4.624;2022-09-30T02:00:43;77025.03;;;-142.75;100.00
41632;BME280;37452;51.938;4.624;2022-09-30T02:03:12;77023.06;;;-142.75;100.00
41632;BME280;37452;51.938;4.624;2022-09-30T02:05:44;77027.00;;;-142.75;100.00
41632;BME280;37452;51.938;4.624;2022-09-30T02:08:18;77025.03;;;-142.75;100.00
41632;BME280;37452;51.938;4.624;2022-09-30T02:10:46;77038.81;;;-142.75;100.00
41632;BME280;37452;51.938;4.624;2022-09-30T02:15:56;77088.03;;;-142.75;100.00
41632;BME280;37452;51.938;4.624;2022-09-30T02:20:50;77129.38;;;-142.75;100.00
41632;BME280;37452;51.938;4.624;2022-09-30T02:23:18;77129.38;;;-142.75;100.00
41632;BME280;37452;51.938;4.624;2022-09-30T02:25:49;77123.47;;;-142.75;100.00
41632;BME280;37452;51.938;4.624;2022-09-30T02:28:22;77125.44;;;-142.75;100.00
41632;BME280;37452;51.938;4.624;2022-09-30T02:30:51;77151.03;;;-142.75;100.00
41632;BME280;37452;51.938;4.624;2022-09-30T02:33:26;77168.75;;;-142.75;100.00
41632;BME280;37452;51.938;4.624;2022-09-30T02:35:55;77166.78;;;-142.75;100.00
41632;BME280;37452;51.938;4.624;2022-09-30T02:38:25;77168.75;;;-142.75;100.00
41632;BME280;37452;51.938;4.624;2022-09-30T02:40:54;77151.03;;;-142.75;100.00
41632;BME280;37452;51.938;4.624;2022-09-30T02:43:21;77153.00;;;-142.75;100.00
41632;BME280;37452;51.938;4.624;2022-09-30T02:45:49;77168.75;;;-142.75;100.00
41632;BME280;37452;51.938;4.624;2022-09-30T02:48:20;77156.94;;;-142.75;100.00
41632;BME280;37452;51.938;4.624;2022-09-30T02:50:52;77141.19;;;-142.75;100.00
41632;BME280;37452;51.938;4.624;2022-09-30T02:56:07;77109.69;;;-142.75;100.00
41632;BME280;37452;51.938;4.624;2022-09-30T02:58:36;77101.81;;;-142.75;100.00
41632;BME280;37452;51.938;4.624;2022-09-30T03:01:13;77097.88;;;-142.75;100.00
41632;BME280;37452;51.938;4.624;2022-09-30T03:03:50;77090.00;;;-142.75;100.00
41632;BME280;37452;51.938;4.624;2022-09-30T03:06:17;77095.91;;;-142.75;100.00
41632;BME280;37452;51.938;4.624;2022-09-30T03:08:43;77097.88;;;-142.75;100.00
41632;BME280;37452;51.938;4.624;2022-09-30T03:11:30;77091.97;;;-142.75;100.00
41632;BME280;37452;51.938;4.624;2022-09-30T03:14:16;77101.81;;;-142.75;100.00
41632;BME280;37452;51.938;4.624;2022-09-30T03:22:14;77093.94;;;-142.75;100.00
41632;BME280;37452;51.938;4.624;2022-09-30T03:37:22;77084.09;;;-142.75;100.00
41632;BME280;37452;51.938;4.624;2022-09-30T03:39:54;77084.09;;;-142.75;100.00
41632;BME280;37452;51.938;4.624;2022-09-30T03:42:25;77093.94;;;-142.75;100.00
41632;BME280;37452;51.938;4.624;2022-09-30T03:45:14;77099.84;;;-142.75;100.00
41632;BME280;37452;51.938;4.624;2022-09-30T03:47:49;77129.38;;;-142.75;100.00
41632;BME280;37452;51.938;4.624;2022-09-30T03:50:18;77123.47;;;-142.75;100.00
41632;BME280;37452;51.938;4.624;2022-09-30T03:52:44;77109.69;;;-142.75;100.00
41632;BME280;37452;51.938;4.624;2022-09-30T03:55:10;77105.75;;;-142.75;100.00
41632;BME280;37452;51.938;4.624;2022-09-30T03:57:35;77107.72;;;-142.75;100.00
41632;BME280;37452;51.938;4.624;2022-09-30T04:00:01;77113.63;;;-142.75;100.00
41632;BME280;37452;51.938;4.624;2022-09-30T04:02:27;77117.56;;;-142.75;100.00
41632;BME280;37452;51.938;4.624;2022-09-30T04:04:52;77111.66;;;-142.75;100.00
41632;BME280;37452;51.938;4.624;2022-09-30T04:07:17;77109.69;;;-142.75;100.00
41632;BME280;37452;51.938;4.624;2022-09-30T04:09:42;77103.78;;;-142.75;100.00
41632;BME280;37452;51.938;4.624;2022-09-30T04:12:08;77097.88;;;-142.75;100.00
41632;BME280;37452;51.938;4.624;2022-09-30T04:14:33;77101.81;;;-142.75;100.00
41632;BME280;37452;51.938;4.624;2022-09-30T04:16:59;77101.81;;;-142.75;100.00
41632;BME280;37452;51.938;4.624;2022-09-30T04:19:24;77099.84;;;-142.75;100.00
41632;BME280;37452;51.938;4.624;2022-09-30T04:21:50;77099.84;;;-142.75;100.00
41632;BME280;37452;51.938;4.624;2022-09-30T04:24:16;77105.75;;;-142.75;100.00
41632;BME280;37452;51.938;4.624;2022-09-30T04:26:41;77111.66;;;-142.75;100.00
41632;BME280;37452;51.938;4.624;2022-09-30T04:29:06;77121.50;;;-142.75;100.00
41632;BME280;37452;51.938;4.624;2022-09-30T04:31:31;77127.41;;;-142.75;100.00
41632;BME280;37452;51.938;4.624;2022-09-30T04:33:57;77123.47;;;-142.75;100.00
41632;BME280;37452;51.938;4.624;2022-09-30T04:36:22;77121.50;;;-142.75;100.00
41632;BME280;37452;51.938;4.624;2022-09-30T04:38:47;77115.59;;;-142.75;100.00
41632;BME280;37452;51.938;4.624;2022-09-30T04:41:13;77113.63;;;-142.75;100.00
41632;BME280;37452;51.938;4.624;2022-09-30T04:43:42;77113.63;;;-142.75;100.00
41632;BME280;37452;51.938;4.624;2022-09-30T04:46:10;77113.63;;;-142.75;100.00
41632;BME280;37452;51.938;4.624;2022-09-30T04:48:36;77103.78;;;-142.75;100.00
41632;BME280;37452;51.938;4.624;2022-09-30T04:51:01;77107.72;;;-142.75;100.00
41632;BME280;37452;51.938;4.624;2022-09-30T04:53:27;77111.66;;;-142.75;100.00
41632;BME280;37452;51.938;4.624;2022-09-30T04:55:56;77105.75;;;-142.75;100.00
41632;BME280;37452;51.938;4.624;2022-09-30T04:58:22;77111.66;;;-142.75;100.00
41632;BME280;37452;51.938;4.624;2022-09-30T05:00:48;77101.81;;;-142.75;100.00
41632;BME280;37452;51.938;4.624;2022-09-30T05:03:13;77097.88;;;-142.75;100.00
41632;BME280;37452;51.938;4.624;2022-09-30T05:05:42;77095.91;;;-142.75;100.00
41632;BME280;37452;51.938;4.624;2022-09-30T05:08:08;77091.97;;;-142.75;100.00
41632;BME280;37452;51.938;4.624;2022-09-30T05:10:33;77107.72;;;-142.75;100.00
41632;BME280;37452;51.938;4.624;2022-09-30T05:12:58;77117.56;;;-142.75;100.00
41632;BME280;37452;51.938;4.624;2022-09-30T05:15:24;77121.50;;;-142.75;100.00
41632;BME280;37452;51.938;4.624;2022-09-30T05:17:49;77129.38;;;-142.75;100.00
41632;BME280;37452;51.938;4.624;2022-09-30T05:20:14;77121.50;;;-142.75;100.00
41632;BME280;37452;51.938;4.624;2022-09-30T05:22:39;77115.59;;;-142.75;100.00
41632;BME280;37452;51.938;4.624;2022-09-30T05:25:05;77109.69;;;-142.75;100.00
41632;BME280;37452;51.938;4.624;2022-09-30T05:27:30;77105.75;;;-142.75;100.00
41632;BME280;37452;51.938;4.624;2022-09-30T05:29:55;77097.88;;;-142.75;100.00
41632;BME280;37452;51.938;4.624;2022-09-30T05:32:20;77107.72;;;-142.75;100.00
41632;BME280;37452;51.938;4.624;2022-09-30T05:34:46;77099.84;;;-142.75;100.00
41632;BME280;37452;51.938;4.624;2022-09-30T05:37:11;77090.00;;;-142.75;100.00
41632;BME280;37452;51.938;4.624;2022-09-30T05:39:37;77093.94;;;-142.75;100.00
41632;BME280;37452;51.938;4.624;2022-09-30T05:42:02;77091.97;;;-142.75;100.00
41632;BME280;37452;51.938;4.624;2022-09-30T05:44:28;77101.81;;;-142.75;100.00
41632;BME280;37452;51.938;4.624;2022-09-30T05:46:53;77101.81;;;-142.75;100.00
41632;BME280;37452;51.938;4.624;2022-09-30T05:49:18;77097.88;;;-142.75;100.00
41632;BME280;37452;51.938;4.624;2022-09-30T05:51:43;77101.81;;;-142.75;100.00
41632;BME280;37452;51.938;4.624;2022-09-30T05:54:09;77093.94;;;-142.75;100.00
41632;BME280;37452;51.938;4.624;2022-09-30T05:56:34;77086.06;;;-142.75;100.00
41632;BME280;37452;51.938;4.624;2022-09-30T05:59:00;77084.09;;;-142.75;100.00
41632;BME280;37452;51.938;4.624;2022-09-30T06:01:25;77062.44;;;-142.75;100.00
41632;BME280;37452;51.938;4.624;2022-09-30T06:03:50;77068.34;;;-142.75;100.00
41632;BME280;37452;51.938;4.624;2022-09-30T06:06:16;77052.59;;;-142.75;100.00
41632;BME280;37452;51.938;4.624;2022-09-30T06:08:43;77036.84;;;-142.75;100.00
41632;BME280;37452;51.938;4.624;2022-09-30T06:11:09;77042.75;;;-142.75;100.00
41632;BME280;37452;51.938;4.624;2022-09-30T06:13:35;77023.06;;;-142.75;100.00
41632;BME280;37452;51.938;4.624;2022-09-30T06:16:01;77017.16;;;-142.75;100.00
41632;BME280;37452;51.938;4.624;2022-09-30T06:18:26;77019.13;;;-142.75;100.00
41632;BME280;37452;51.938;4.624;2022-09-30T06:20:55;76997.47;;;-142.75;100.00
41632;BME280;37452;51.938;4.624;2022-09-30T06:23:20;76983.69;;;-142.75;100.00
41632;BME280;37452;51.938;4.624;2022-09-30T06:25:48;76981.72;;;-142.75;100.00
41632;BME280;37452;51.938;4.624;2022-09-30T06:28:14;76960.06;;;-142.75;100.00
41632;BME280;37452;51.938;4.624;2022-09-30T06:30:39;76944.31;;;-142.75;100.00
41632;BME280;37452;51.938;4.624;2022-09-30T06:33:04;76932.50;;;-142.75;100.00
41632;BME280;37452;51.938;4.624;2022-09-30T06:35:30;76920.69;;;-142.75;100.00
41632;BME280;37452;51.938;4.624;2022-09-30T06:37:55;76920.69;;;-142.75;100.00
41632;BME280;37452;51.938;4.624;2022-09-30T06:40:20;76912.81;;;-142.75;100.00
41632;BME280;37452;51.938;4.624;2022-09-30T06:42:46;76887.22;;;-142.75;100.00
41632;BME280;37452;51.938;4.624;2022-09-30T06:45:12;76881.31;;;-142.75;100.00
41632;BME280;37452;51.938;4.624;2022-09-30T06:47:37;76869.50;;;-142.75;100.00
41632;BME280;37452;51.938;4.624;2022-09-30T06:50:03;76853.75;;;-142.75;100.00
41632;BME280;37452;51.938;4.624;2022-09-30T06:52:28;76814.38;;;-142.75;100.00
41632;BME280;37452;51.938;4.624;2022-09-30T06:54:53;76802.56;;;-142.75;100.00
41632;BME280;37452;51.938;4.624;2022-09-30T06:57:22;76788.81;;;-142.75;100.00
41632;BME280;37452;51.938;4.624;2022-09-30T06:59:49;76777.00;;;-142.75;100.00
41632;BME280;37452;51.938;4.624;2022-09-30T07:02:14;76757.31;;;-142.75;100.00
41632;BME280;37452;51.938;4.624;2022-09-30T07:04:40;76729.75;;;-142.75;100.00
41632;BME280;37452;51.938;4.624;2022-09-30T07:07:05;76715.97;;;-142.75;100.00
41632;BME280;37452;51.938;4.624;2022-09-30T07:09:31;76714.00;;;-142.75;100.00
41632;BME280;37452;51.938;4.624;2022-09-30T07:11:56;76692.34;;;-142.75;100.00
41632;BME280;37452;51.938;4.624;2022-09-30T07:14:21;76674.63;;;-142.75;100.00
41632;BME280;37452;51.938;4.624;2022-09-30T07:16:48;76627.38;;;-142.75;100.00
41632;BME280;37452;51.938;4.624;2022-09-30T07:19:14;76611.63;;;-142.75;100.00
41632;BME280;37452;51.938;4.624;2022-09-30T07:21:41;76645.09;;;-142.75;100.00
41632;BME280;37452;51.938;4.624;2022-09-30T07:24:06;76625.41;;;-142.75;100.00
41632;BME280;37452;51.938;4.624;2022-09-30T07:26:33;76601.78;;;-142.75;100.00
41632;BME280;37452;51.938;4.624;2022-09-30T07:28:58;76582.09;;;-142.75;100.00
41632;BME280;37452;51.938;4.624;2022-09-30T07:31:24;76556.50;;;-142.75;100.00
41632;BME280;37452;51.938;4.624;2022-09-30T07:33:50;76550.59;;;-142.75;100.00
41632;BME280;37452;51.938;4.624;2022-09-30T07:36:16;76532.88;;;-142.75;100.00
41632;BME280;37452;51.938;4.624;2022-09-30T07:38:42;76525.03;;;-142.75;100.00
41632;BME280;37452;51.938;4.624;2022-09-30T07:41:12;76528.97;;;-142.75;100.00
41632;BME280;37452;51.938;4.624;2022-09-30T07:43:37;76530.91;;;-142.75;100.00
41632;BME280;37452;51.938;4.624;2022-09-30T07:46:04;76497.47;;;-142.75;100.00
41632;BME280;37452;51.938;4.624;2022-09-30T07:48:30;76495.50;;;-142.75;100.00
41632;BME280;37452;51.938;4.624;2022-09-30T07:51:07;76460.06;;;-142.75;100.00
41632;BME280;37452;51.938;4.624;2022-09-30T07:53:33;76412.81;;;-142.75;100.00
41632;BME280;37452;51.938;4.624;2022-09-30T07:56:01;76361.63;;;-142.75;100.00
41632;BME280;37452;51.938;4.624;2022-09-30T07:58:26;76351.81;;;-142.75;100.00
41632;BME280;37452;51.938;4.624;2022-09-30T08:00:52;76326.22;;;-142.75;100.00
41632;BME280;37452;51.938;4.624;2022-09-30T08:03:17;76314.41;;;-142.75;100.00
41632;BME280;37452;51.938;4.624;2022-09-30T08:05:42;76306.53;;;-142.75;100.00
41632;BME280;37452;51.938;4.624;2022-09-30T08:08:09;76292.75;;;-142.75;100.00
41632;BME280;37452;51.938;4.624;2022-09-30T08:10:35;76275.03;;;-142.75;100.00
41632;BME280;37452;51.938;4.624;2022-09-30T08:13:00;76245.50;;;-142.75;100.00
41632;BME280;37452;51.938;4.624;2022-09-30T08:15:25;76235.66;;;-142.75;100.00
41632;BME280;37452;51.938;4.624;2022-09-30T08:17:50;76223.84;;;-142.75;100.00
41632;BME280;37452;51.938;4.624;2022-09-30T08:20:16;76219.91;;;-142.75;100.00
41632;BME280;37452;51.938;4.624;2022-09-30T08:22:41;76145.13;;;-142.75;100.00
41632;BME280;37452;51.938;4.624;2022-09-30T08:25:06;76154.97;;;-142.75;100.00
41632;BME280;37452;51.938;4.624;2022-09-30T08:27:31;76194.34;;;-142.75;100.00
41632;BME280;37452;51.938;4.624;2022-09-30T08:29:58;76160.88;;;-142.75;100.00
41632;BME280;37452;51.938;4.624;2022-09-30T08:32:24;76133.31;;;-142.75;100.00
41632;BME280;37452;51.938;4.624;2022-09-30T08:34:49;76093.94;;;-142.75;100.00
41632;BME280;37452;51.938;4.624;2022-09-30T08:37:14;76097.88;;;-142.75;100.00
41632;BME280;37452;51.938;4.624;2022-09-30T08:39:39;76093.94;;;-142.75;100.00
41632;BME280;37452;51.938;4.624;2022-09-30T08:42:19;76062.47;;;-142.75;100.00
41632;BME280;37452;51.938;4.624;2022-09-30T08:44:48;76030.97;;;-142.75;100.00
41632;BME280;37452;51.938;4.624;2022-09-30T08:52:22;76027.03;;;-142.75;100.00
41632;BME280;37452;51.938;4.624;2022-09-30T08:54:50;76052.63;;;-142.75;100.00
41632;BME280;37452;51.938;4.624;2022-09-30T08:57:16;76086.06;;;-142.75;100.00
41632;BME280;37452;51.938;4.624;2022-09-30T08:59:47;76034.91;;;-142.75;100.00
41632;BME280;37452;51.938;4.624;2022-09-30T09:02:47;76003.41;;;-142.75;100.00
41632;BME280;37452;51.938;4.624;2022-09-30T09:05:05;75956.19;;;-142.75;100.00
41632;BME280;37452;51.938;4.624;2022-09-30T09:07:37;75936.50;;;-142.75;100.00
41632;BME280;37452;51.938;4.624;2022-09-30T09:23:29;75922.72;;;-142.75;100.00
41632;BME280;37452;51.938;4.624;2022-09-30T09:25:55;75881.38;;;-142.75;100.00
41632;BME280;37452;51.938;4.624;2022-09-30T09:30:52;75922.72;;;-142.75;100.00
41632;BME280;37452;51.938;4.624;2022-09-30T09:33:20;75889.25;;;-142.75;100.00
41632;BME280;37452;51.938;4.624;2022-09-30T09:48:19;75857.78;;;-142.75;100.00
41632;BME280;37452;51.938;4.624;2022-09-30T09:50:47;75822.34;;;-142.75;100.00
41632;BME280;37452;51.938;4.624;2022-09-30T09:55:53;75816.44;;;-142.75;100.00
41632;BME280;37452;51.938;4.624;2022-09-30T09:58:19;75796.75;;;-142.75;100.00
41632;BME280;37452;51.938;4.624;2022-09-30T10:00:45;75790.84;;;-142.75;100.00
41632;BME280;37452;51.938;4.624;2022-09-30T10:03:12;75853.84;;;-142.75;100.00
41632;BME280;37452;51.938;4.624;2022-09-30T10:05:43;75838.09;;;-142.75;100.00
41632;BME280;37452;51.938;4.624;2022-09-30T10:08:18;75816.44;;;-142.75;100.00
41632;BME280;37452;51.938;4.624;2022-09-30T10:10:54;75775.09;;;-142.75;100.00
41632;BME280;37452;51.938;4.624;2022-09-30T10:13:21;75749.53;;;-142.75;100.00
41632;BME280;37452;51.938;4.624;2022-09-30T10:15:48;75769.19;;;-142.75;100.00
41632;BME280;37452;51.938;4.624;2022-09-30T10:18:28;75714.09;;;-142.75;100.00
41632;BME280;37452;51.938;4.624;2022-09-30T10:21:39;75790.84;;;-142.75;100.00
41632;BME280;37452;51.938;4.624;2022-09-30T10:23:39;75749.53;;;-142.75;100.00
41632;BME280;37452;51.938;4.624;2022-09-30T10:31:16;75818.41;;;-142.75;100.00
41632;BME280;37452;51.938;4.624;2022-09-30T10:33:47;75735.75;;;-142.75;100.00
41632;BME280;37452;51.938;4.624;2022-09-30T10:36:18;75792.81;;;-142.75;100.00
41632;BME280;37452;51.938;4.624;2022-09-30T10:39:05;75867.59;;;-142.75;100.00
41632;BME280;37452;51.938;4.624;2022-09-30T10:41:30;75849.91;;;-142.75;100.00
41632;BME280;37452;51.938;4.624;2022-09-30T10:43:56;75842.03;;;-142.75;100.00
41632;BME280;37452;51.938;4.624;2022-09-30T10:46:30;75814.47;;;-142.75;100.00
41632;BME280;37452;51.938;4.624;2022-09-30T10:48:57;75806.59;;;-142.75;100.00
41632;BME280;37452;51.938;4.624;2022-09-30T10:51:27;75782.97;;;-142.75;100.00
41632;BME280;37452;51.938;4.624;2022-09-30T10:53:53;75816.44;;;-142.75;100.00
41632;BME280;37452;51.938;4.624;2022-09-30T10:56:32;75798.72;;;-142.75;100.00
41632;BME280;37452;51.938;4.624;2022-09-30T10:58:58;75844.00;;;-142.75;100.00
41632;BME280;37452;51.938;4.624;2022-09-30T11:01:26;75855.81;;;-142.75;100.00
41632;BME280;37452;51.938;4.624;2022-09-30T11:04:03;75802.66;;;-142.75;100.00
41632;BME280;37452;51.938;4.624;2022-09-30T11:06:31;75712.13;;;-142.75;100.00
41632;BME280;37452;51.938;4.624;2022-09-30T11:08:59;75660.97;;;-142.75;99.77
41632;BME280;37452;51.938;4.624;2022-09-30T11:11:28;75765.25;;;-142.75;98.79
41632;BME280;37452;51.938;4.624;2022-09-30T11:14:04;75794.78;;;-142.75;99.06
41632;BME280;37452;51.938;4.624;2022-09-30T11:16:51;75794.78;;;-142.75;96.30
41632;BME280;37452;51.938;4.624;2022-09-30T11:19:36;75794.78;;;-142.75;99.94
41632;BME280;37452;51.938;4.624;2022-09-30T11:22:19;75698.34;;;-142.75;100.00
41632;BME280;37452;51.938;4.624;2022-09-30T11:24:47;75716.06;;;-142.75;97.05
41632;BME280;37452;51.938;4.624;2022-09-30T11:27:19;75782.97;;;-142.75;100.00
41632;BME280;37452;51.938;4.624;2022-09-30T11:38:12;75960.13;;;-142.75;100.00
41632;BME280;37452;51.938;4.624;2022-09-30T11:40:44;75912.88;;;-142.75;100.00
41632;BME280;37452;51.938;4.624;2022-09-30T11:43:17;75905.00;;;-142.75;100.00
41632;BME280;37452;51.938;4.624;2022-09-30T11:51:18;75842.03;;;-142.75;100.00
41632;BME280;37452;51.938;4.624;2022-09-30T11:58:50;75859.72;;;-142.75;100.00
41632;BME280;37452;51.938;4.624;2022-09-30T12:03:45;75926.66;;;-142.75;100.00
41632;BME280;37452;51.938;4.624;2022-09-30T12:08:47;75806.59;;;-142.75;100.00
41632;BME280;37452;51.938;4.624;2022-09-30T12:11:18;75757.41;;;-142.75;100.00
41632;BME280;37452;51.938;4.624;2022-09-30T12:13:47;75777.06;;;-142.75;100.00
41632;BME280;37452;51.938;4.624;2022-09-30T12:16:17;75790.84;;;-142.75;94.62
41632;BME280;37452;51.938;4.624;2022-09-30T12:18:50;75842.03;;;-142.75;98.22
41632;BME280;37452;51.938;4.624;2022-09-30T12:23:52;75861.69;;;-142.75;99.19
41632;BME280;37452;51.938;4.624;2022-09-30T12:26:18;75863.66;;;-142.75;100.00
41632;BME280;37452;51.938;4.624;2022-09-30T12:28:57;75914.84;;;-142.75;100.00
41632;BME280;37452;51.938;4.624;2022-09-30T12:32:00;75973.88;;;-142.75;100.00
41632;BME280;37452;51.938;4.624;2022-09-30T12:34:47;75952.25;;;-142.75;100.00
41632;BME280;37452;51.938;4.624;2022-09-30T12:49:42;75946.34;;;-142.75;100.00
41632;BME280;37452;51.938;4.624;2022-09-30T12:52:16;75944.38;;;-142.75;100.00
41632;BME280;37452;51.938;4.624;2022-09-30T12:57:35;75903.03;;;-142.75;100.00
41632;BME280;37452;51.938;4.624;2022-09-30T13:00:05;75873.50;;;-142.75;100.00
41632;BME280;37452;51.938;4.624;2022-09-30T13:02:39;75851.88;;;-142.75;100.00
41632;BME280;37452;51.938;4.624;2022-09-30T13:06:06;75836.13;;;-142.75;100.00
41632;BME280;37452;51.938;4.624;2022-09-30T13:20:54;75942.41;;;-142.75;100.00
41632;BME280;37452;51.938;4.624;2022-09-30T13:26:00;75967.97;;;-142.75;98.77
41632;BME280;37452;51.938;4.624;2022-09-30T13:28:28;76007.34;;;-142.75;100.00
41632;BME280;37452;51.938;4.624;2022-09-30T13:31:15;75977.81;;;-142.75;100.00
41632;BME280;37452;51.938;4.624;2022-09-30T13:33:44;75962.09;;;-142.75;98.45
41632;BME280;37452;51.938;4.624;2022-09-30T13:36:17;75956.19;;;-142.75;97.40
41632;BME280;37452;51.938;4.624;2022-09-30T13:38:42;75971.91;;;-142.75;95.90
41632;BME280;37452;51.938;4.624;2022-09-30T13:46:31;75983.72;;;-142.75;91.15
41632;BME280;37452;51.938;4.624;2022-09-30T13:49:00;75995.53;;;-142.75;93.26
41632;BME280;37452;51.938;4.624;2022-09-30T13:51:28;75993.56;;;-142.75;93.82
41632;BME280;37452;51.938;4.624;2022-09-30T13:53:57;76009.31;;;-142.75;92.19
41632;BME280;37452;51.938;4.624;2022-09-30T13:56:25;76054.59;;;-142.75;91.54
41632;BME280;37452;51.938;4.624;2022-09-30T14:04:34;76046.72;;;-142.75;90.10
41632;BME280;37452;51.938;4.624;2022-09-30T14:09:53;76034.91;;;-142.75;93.45
41632;BME280;37452;51.938;4.624;2022-09-30T14:22:45;76027.03;;;-142.75;94.29
41632;BME280;37452;51.938;4.624;2022-09-30T14:25:14;76021.13;;;-142.75;97.03
41632;BME280;37452;51.938;4.624;2022-09-30T14:32:56;76040.81;;;-142.75;100.00
41632;BME280;37452;51.938;4.624;2022-09-30T14:35:23;76042.78;;;-142.75;100.00
41632;BME280;37452;51.938;4.624;2022-09-30T14:37:50;76052.63;;;-142.75;99.27
41632;BME280;37452;51.938;4.624;2022-09-30T14:40:23;76058.53;;;-142.75;100.00
41632;BME280;37452;51.938;4.624;2022-09-30T14:42:49;76050.66;;;-142.75;100.00
41632;BME280;37452;51.938;4.624;2022-09-30T14:45:18;76066.41;;;-142.75;100.00
41632;BME280;37452;51.938;4.624;2022-09-30T14:47:46;76058.53;;;-142.75;100.00
41632;BME280;37452;51.938;4.624;2022-09-30T14:50:14;76054.59;;;-142.75;100.00
41632;BME280;37452;51.938;4.624;2022-09-30T14:52:43;76060.50;;;-142.75;100.00
41632;BME280;37452;51.938;4.624;2022-09-30T14:55:23;76052.63;;;-142.75;100.00
41632;BME280;37452;51.938;4.624;2022-09-30T14:57:50;76062.47;;;-142.75;100.00
41632;BME280;37452;51.938;4.624;2022-09-30T15:00:19;76054.59;;;-142.75;100.00
41632;BME280;37452;51.938;4.624;2022-09-30T15:02:44;76082.13;;;-142.75;100.00
41632;BME280;37452;51.938;4.624;2022-09-30T15:05:11;76076.22;;;-142.75;100.00
41632;BME280;37452;51.938;4.624;2022-09-30T15:07:40;76093.94;;;-142.75;100.00
41632;BME280;37452;51.938;4.624;2022-09-30T15:10:06;76101.81;;;-142.75;100.00
41632;BME280;37452;51.938;4.624;2022-09-30T15:12:31;76117.56;;;-142.75;100.00
41632;BME280;37452;51.938;4.624;2022-09-30T15:15:00;76105.75;;;-142.75;100.00
41632;BME280;37452;51.938;4.624;2022-09-30T15:17:33;76121.50;;;-142.75;100.00
41632;BME280;37452;51.938;4.624;2022-09-30T15:19:59;76121.50;;;-142.75;100.00
41632;BME280;37452;51.938;4.624;2022-09-30T15:22:25;76125.44;;;-142.75;100.00
41632;BME280;37452;51.938;4.624;2022-09-30T15:24:51;76131.34;;;-142.75;100.00
41632;BME280;37452;51.938;4.624;2022-09-30T15:27:21;76139.22;;;-142.75;100.00
41632;BME280;37452;51.938;4.624;2022-09-30T15:30:47;76139.22;;;-142.75;100.00
41632;BME280;37452;51.938;4.624;2022-09-30T15:32:42;76149.06;;;-142.75;100.00
41632;BME280;37452;51.938;4.624;2022-09-30T15:35:12;76158.91;;;-142.75;100.00
41632;BME280;37452;51.938;4.624;2022-09-30T15:37:39;76151.03;;;-142.75;100.00
41632;BME280;37452;51.938;4.624;2022-09-30T15:40:11;76162.84;;;-142.75;100.00
41632;BME280;37452;51.938;4.624;2022-09-30T15:42:57;76168.75;;;-142.75;100.00
41632;BME280;37452;51.938;4.624;2022-09-30T15:47:58;76172.69;;;-142.75;100.00